createdAt,value
2023-02-12T00:04:04.417Z,7.70
2023-02-12T00:09:06.332Z,9.65
2023-02-12T00:14:07.754Z,13.68
2023-02-12T00:19:09.734Z,11.80
2023-02-12T00:24:11.354Z,11.55
2023-02-12T00:29:12.908Z,9.10
2023-02-12T00:34:14.333Z,14.10
2023-02-12T00:39:15.917Z,14.40
2023-02-12T00:44:17.523Z,14.30
2023-02-12T00:49:19.039Z,11.25
2023-02-12T00:54:20.619Z,16.02
2023-02-12T00:59:23.363Z,9.60
2023-02-12T01:04:24.941Z,8.10
2023-02-12T01:09:26.617Z,8.82
2023-02-12T01:14:28.298Z,10.95
2023-02-12T01:19:29.858Z,10.63
2023-02-12T01:24:31.334Z,11.70
2023-02-12T01:29:32.997Z,10.82
2023-02-12T01:34:34.465Z,7.60
2023-02-12T01:39:36.200Z,9.68
2023-02-12T01:44:43.828Z,15.70
2023-02-12T01:49:48.149Z,9.95
2023-02-12T01:54:53.542Z,9.18
2023-02-12T01:59:59.056Z,27.35
2023-02-12T02:05:03.574Z,11.57
2023-02-12T02:10:05.674Z,13.18
2023-02-12T02:15:07.776Z,11.68
2023-02-12T02:20:46.311Z,10.00
2023-02-12T02:25:53.695Z,10.55
2023-02-12T02:31:09.266Z,10.45
2023-02-12T02:36:25.848Z,11.35
2023-02-12T02:41:57.488Z,7.32
2023-02-12T02:47:01.962Z,12.18
2023-02-12T02:52:09.614Z,13.88
2023-02-12T02:57:23.330Z,7.90
2023-02-12T03:02:29.756Z,17.58
2023-02-12T03:07:41.550Z,12.68
2023-02-12T03:12:55.435Z,15.77
2023-02-12T03:17:59.619Z,8.00
2023-02-12T03:23:07.125Z,10.23
2023-02-12T03:28:22.496Z,17.33
2023-02-12T03:33:35.732Z,7.80
2023-02-12T03:38:52.792Z,7.80
2023-02-12T03:44:04.113Z,8.25
2023-02-12T03:49:22.017Z,10.50
2023-02-12T03:54:23.462Z,8.68
2023-02-12T03:59:25.697Z,8.00
2023-02-12T04:04:28.430Z,7.30
2023-02-12T04:09:32.162Z,11.30
2023-02-12T04:14:49.772Z,11.43
2023-02-12T04:20:00.506Z,5.78
2023-02-12T04:25:26.635Z,12.25
2023-02-12T04:30:39.962Z,11.02
2023-02-12T04:35:55.299Z,11.18
2023-02-12T04:40:57.717Z,20.20
2023-02-12T04:45:59.439Z,13.38
2023-02-12T04:51:01.684Z,15.82
2023-02-12T04:56:03.442Z,9.95
2023-02-12T05:01:05.096Z,16.92
2023-02-12T05:06:08.580Z,11.27
2023-02-12T05:11:10.967Z,10.65
2023-02-12T05:16:12.446Z,12.75
2023-02-12T05:21:14.406Z,14.25
2023-02-12T05:26:19.079Z,13.13
2023-02-12T05:31:21.756Z,12.90
2023-02-12T05:36:24.613Z,13.25
2023-02-12T05:41:26.042Z,11.30
2023-02-12T05:46:27.722Z,15.20
2023-02-12T05:51:29.205Z,14.90
2023-02-12T05:56:33.153Z,11.77
2023-02-12T06:01:40.462Z,15.80
2023-02-12T06:06:42.458Z,15.57
2023-02-12T06:11:44.242Z,13.77
2023-02-12T06:16:47.962Z,14.63
2023-02-12T06:21:49.466Z,12.85
2023-02-12T06:26:51.741Z,17.13
2023-02-12T06:31:53.358Z,17.95
2023-02-12T06:36:55.033Z,19.98
2023-02-12T06:41:56.554Z,19.70
2023-02-12T06:46:58.002Z,13.15
2023-02-12T06:52:01.684Z,16.35
2023-02-12T06:57:05.001Z,18.48
2023-02-12T07:02:07.564Z,18.50
2023-02-12T07:07:09.022Z,15.05
2023-02-12T07:12:10.517Z,16.70
2023-02-12T07:17:11.893Z,12.90
2023-02-12T07:22:13.337Z,18.02
2023-02-12T07:27:15.150Z,12.65
2023-02-12T07:32:16.667Z,16.10
2023-02-12T07:37:18.122Z,17.77
2023-02-12T07:42:19.535Z,11.00
2023-02-12T07:47:21.083Z,9.15
2023-02-12T07:52:22.641Z,13.85
2023-02-12T07:57:24.148Z,13.18
2023-02-12T08:02:25.745Z,10.27
2023-02-12T08:07:27.307Z,13.52
2023-02-12T08:12:28.968Z,15.55
2023-02-12T08:17:30.507Z,13.65
2023-02-12T08:22:32.130Z,15.45
2023-02-12T08:27:33.653Z,15.57
2023-02-12T08:32:35.388Z,12.18
2023-02-12T08:37:37.081Z,11.60
2023-02-12T08:42:38.634Z,15.80
2023-02-12T08:47:40.247Z,19.08
2023-02-12T08:52:43.722Z,16.52
2023-02-12T08:57:45.531Z,19.33
2023-02-12T09:02:48.890Z,15.95
2023-02-12T09:07:53.582Z,18.17
2023-02-12T09:12:55.036Z,21.13
2023-02-12T09:17:56.786Z,23.00
2023-02-12T09:22:59.421Z,26.95
2023-02-12T09:28:04.003Z,17.88
2023-02-12T09:33:08.103Z,18.45
2023-02-12T09:38:09.854Z,22.35
2023-02-12T09:43:45.684Z,22.70
2023-02-12T09:49:01.913Z,25.80
2023-02-12T09:54:13.366Z,22.15
2023-02-12T09:59:27.922Z,20.75
2023-02-12T10:04:29.537Z,22.85
2023-02-12T10:10:12.152Z,32.95
2023-02-12T10:15:29.194Z,44.90
2023-02-12T10:20:41.508Z,36.13
2023-02-12T10:25:57.869Z,31.85
2023-02-12T10:31:06.268Z,45.50
2023-02-12T10:36:39.069Z,43.13
2023-02-12T10:41:49.631Z,45.20
2023-02-12T10:46:51.341Z,41.92
2023-02-12T10:52:01.439Z,41.42
2023-02-12T10:57:18.396Z,45.40
2023-02-12T11:02:26.795Z,41.45
2023-02-12T11:07:28.874Z,46.65
2023-02-12T11:12:35.995Z,41.63
2023-02-12T11:17:43.514Z,45.35
2023-02-12T11:22:52.151Z,37.92
2023-02-12T11:28:13.937Z,38.08
2023-02-12T11:33:23.826Z,40.90
2023-02-12T11:38:29.905Z,43.35
2023-02-12T11:43:34.021Z,44.63
2023-02-12T11:48:41.142Z,45.45
2023-02-12T11:53:47.441Z,38.92
2023-02-12T11:58:51.019Z,30.90
2023-02-12T12:04:04.977Z,37.47
2023-02-12T12:09:09.520Z,28.73
2023-02-12T12:14:29.533Z,28.35
2023-02-12T12:19:57.835Z,35.83
2023-02-12T12:25:24.245Z,25.38
2023-02-12T12:30:34.449Z,37.45
2023-02-12T12:36:08.281Z,30.38
2023-02-12T12:41:21.647Z,38.33
2023-02-12T12:46:41.892Z,43.47
2023-02-12T12:52:02.849Z,41.00
2023-02-12T12:57:04.290Z,26.92
2023-02-12T13:02:33.043Z,28.05
2023-02-12T13:07:34.507Z,39.00
2023-02-12T13:13:09.375Z,30.05
2023-02-12T13:18:31.087Z,31.83
2023-02-12T13:23:42.810Z,27.98
2023-02-12T13:28:49.783Z,33.78
2023-02-12T13:34:00.738Z,26.60
2023-02-12T13:39:18.510Z,28.15
2023-02-12T13:44:32.144Z,30.52
2023-02-12T13:49:45.617Z,24.05
2023-02-12T13:54:49.793Z,26.58
2023-02-12T13:59:56.076Z,27.10
2023-02-12T14:05:03.395Z,18.45
2023-02-12T14:10:05.388Z,28.08
2023-02-12T14:15:26.770Z,22.98
2023-02-12T14:20:36.449Z,27.92
2023-02-12T14:25:48.363Z,28.25
2023-02-12T14:31:15.893Z,26.08
2023-02-12T14:36:32.260Z,21.45
2023-02-12T14:41:36.904Z,20.17
2023-02-12T14:46:38.583Z,18.15
2023-02-12T14:51:46.849Z,27.42
2023-02-12T14:56:50.462Z,21.80
2023-02-12T15:01:53.458Z,16.92
2023-02-12T15:07:05.028Z,15.02
2023-02-12T15:12:15.554Z,12.18
2023-02-12T15:17:27.707Z,16.80
2023-02-12T15:22:36.115Z,14.77
2023-02-12T15:27:41.496Z,14.15
2023-02-12T15:32:43.704Z,21.63
2023-02-12T15:37:46.645Z,13.60
2023-02-12T15:42:57.118Z,16.08
2023-02-12T15:48:18.555Z,24.38
2023-02-12T15:53:22.967Z,15.32
2023-02-12T15:58:30.746Z,20.00
2023-02-12T16:03:37.784Z,18.83
2023-02-12T16:08:45.779Z,15.68
2023-02-12T16:13:50.655Z,10.73
2023-02-12T16:19:26.208Z,8.43
2023-02-12T16:24:31.873Z,6.77
2023-02-12T16:29:36.820Z,8.00
2023-02-12T16:34:38.856Z,7.77
2023-02-12T16:40:14.282Z,6.20
2023-02-12T16:45:25.163Z,9.05
2023-02-12T16:50:29.009Z,6.93
2023-02-12T16:55:31.345Z,11.57
2023-02-12T17:00:32.877Z,13.35
2023-02-12T17:05:34.544Z,9.65
2023-02-12T17:10:35.983Z,15.70
2023-02-12T17:15:42.615Z,11.93
2023-02-12T17:20:47.783Z,8.43
2023-02-12T17:25:49.491Z,7.63
2023-02-12T17:30:52.530Z,7.85
2023-02-12T17:35:54.299Z,9.38
2023-02-12T17:40:56.227Z,7.82
2023-02-12T17:45:57.972Z,11.45
2023-02-12T17:50:59.716Z,9.65
2023-02-12T17:56:01.310Z,7.72
2023-02-12T18:01:07.411Z,6.80
2023-02-12T18:06:09.991Z,5.47
2023-02-12T18:11:11.592Z,3.80
2023-02-12T18:16:14.560Z,7.18
2023-02-12T18:21:16.738Z,5.68
2023-02-12T18:26:18.926Z,9.43
2023-02-12T18:31:21.156Z,6.57
2023-02-12T18:36:22.786Z,7.30
2023-02-12T18:41:27.327Z,7.72
2023-02-12T18:46:30.486Z,9.10
2023-02-12T18:51:32.105Z,5.38
2023-02-12T18:56:39.283Z,5.18
2023-02-12T19:01:41.326Z,4.68
2023-02-12T19:06:46.334Z,6.68
2023-02-12T19:11:50.359Z,8.03
2023-02-12T19:16:52.417Z,7.32
2023-02-12T19:21:53.924Z,13.70
2023-02-12T19:26:55.459Z,10.70
2023-02-12T19:31:57.055Z,8.00
2023-02-12T19:36:58.688Z,7.80
2023-02-12T19:42:00.184Z,6.78
2023-02-12T19:47:01.741Z,7.45
2023-02-12T19:52:03.350Z,3.78
2023-02-12T19:57:04.794Z,4.60
2023-02-12T20:02:06.593Z,7.47
2023-02-12T20:07:08.708Z,5.03
2023-02-12T20:12:10.237Z,2.45
2023-02-12T20:17:11.793Z,4.97
2023-02-12T20:22:13.224Z,5.35
2023-02-12T20:27:15.309Z,4.57
2023-02-12T20:32:16.881Z,3.40
2023-02-12T20:37:18.640Z,7.50
2023-02-12T20:42:20.141Z,3.45
2023-02-12T20:47:21.680Z,5.22
2023-02-12T20:52:24.449Z,6.60
2023-02-12T20:57:25.911Z,11.45
2023-02-12T21:02:27.859Z,5.45
2023-02-12T21:07:29.411Z,4.15
2023-02-12T21:12:30.935Z,7.15
2023-02-12T21:17:33.298Z,8.73
2023-02-12T21:22:35.717Z,6.72
2023-02-12T21:27:37.144Z,9.38
2023-02-12T21:32:38.729Z,14.32
2023-02-12T21:37:40.273Z,6.25
2023-02-12T21:42:41.696Z,10.27
2023-02-12T21:47:43.219Z,7.20
2023-02-12T21:52:44.784Z,7.47
2023-02-12T21:57:46.231Z,10.10
2023-02-12T22:02:48.064Z,8.20
2023-02-12T22:07:50.659Z,14.85
2023-02-12T22:12:52.221Z,10.38
2023-02-12T22:17:53.876Z,13.30
2023-02-12T22:22:55.548Z,14.80
2023-02-12T22:27:57.018Z,11.82
2023-02-12T22:32:58.605Z,11.27
2023-02-12T22:38:00.136Z,15.48
2023-02-12T22:43:01.608Z,9.18
2023-02-12T22:48:03.546Z,7.07
2023-02-12T22:53:05.353Z,12.75
2023-02-12T22:58:06.876Z,9.38
2023-02-12T23:03:08.481Z,8.85
2023-02-12T23:08:10.028Z,14.13
2023-02-12T23:13:18.574Z,10.05
2023-02-12T23:18:26.284Z,10.90
2023-02-12T23:23:28.190Z,8.85
2023-02-12T23:28:30.995Z,7.95
2023-02-12T23:33:32.598Z,8.60
2023-02-12T23:38:34.041Z,7.20
2023-02-12T23:43:35.615Z,7.65
2023-02-12T23:48:37.121Z,9.48
2023-02-12T23:53:38.641Z,13.30
2023-02-12T23:58:41.199Z,8.25
